Millheim, Texas
Current Conditions -  °F | °C
As of 6:35 PM on Thursday 18 Dec 2014 (Local Time) from KELA Reporting Station
Broken Clouds Broken Clouds  
Wind Chill: 62°   Ceiling: 5000
Heat Index: 62°   Visibility: 10mi
Dew Point: 59°   Wind: 7mph
Humidity: 89%   Direction: 30°NNE
Pressure: 30.04"   Gusts: NA
Location:  29.7835°N, 96.2064°W
Report Text: KELA 190035Z AUTO 03006KT 10SM SCT042 BKN050 17/15 A3004 RMK AO2 T01690150
Loading
Personal Weather Stations






























Interactive Weather Map New forecast layout! Learn more

10-Day Weather Forecast

Advertisements
Track Severe Weather on mobile